createdAt,value
2018-06-13T00:02:25.655Z,11.00
2018-06-13T00:04:54.715Z,11.10
2018-06-13T00:07:23.776Z,11.20
2018-06-13T00:09:52.843Z,11.30
2018-06-13T00:12:21.912Z,11.30
2018-06-13T00:14:50.984Z,11.10
2018-06-13T00:17:20.012Z,11.00
2018-06-13T00:19:49.341Z,11.00
2018-06-13T00:22:18.982Z,10.90
2018-06-13T00:24:48.051Z,10.80
2018-06-13T00:27:17.095Z,10.80
2018-06-13T00:29:46.147Z,10.70
2018-06-13T00:32:15.188Z,10.70
2018-06-13T00:34:44.418Z,10.60
2018-06-13T00:37:13.487Z,10.60
2018-06-13T00:39:42.520Z,10.50
2018-06-13T00:44:41.239Z,10.50
2018-06-13T00:47:10.269Z,10.30
2018-06-13T00:49:39.307Z,10.30
2018-06-13T00:52:08.355Z,10.20
2018-06-13T00:54:38.094Z,10.30
2018-06-13T00:57:07.132Z,10.20
2018-06-13T00:59:36.190Z,10.30
2018-06-13T01:02:05.235Z,10.20
2018-06-13T01:07:02.906Z,10.00
2018-06-13T01:10:34.789Z,9.90
2018-06-13T01:13:03.863Z,10.00
2018-06-13T01:15:32.908Z,10.00
2018-06-13T01:18:01.952Z,10.10
2018-06-13T01:20:30.994Z,10.00
2018-06-13T01:23:00.048Z,9.90
2018-06-13T01:25:29.067Z,9.70
2018-06-13T01:27:58.144Z,9.50
2018-06-13T01:30:27.235Z,9.70
2018-06-13T01:32:56.288Z,9.70
2018-06-13T01:35:25.567Z,9.70
2018-06-13T01:37:54.611Z,9.50
2018-06-13T01:40:23.667Z,9.40
2018-06-13T01:42:52.703Z,9.30
2018-06-13T01:45:21.979Z,9.30
2018-06-13T01:47:51.315Z,9.50
2018-06-13T01:50:20.565Z,9.50
2018-06-13T01:52:49.663Z,9.40
2018-06-13T01:55:18.955Z,9.50
2018-06-13T01:57:48.200Z,9.50
2018-06-13T02:00:17.239Z,9.60
2018-06-13T02:02:46.288Z,9.70
2018-06-13T02:05:17.635Z,9.80
2018-06-13T02:07:46.731Z,9.80
2018-06-13T02:10:15.914Z,9.80
2018-06-13T02:12:45.523Z,9.80
2018-06-13T02:15:14.543Z,9.70
2018-06-13T02:17:44.497Z,9.70
2018-06-13T02:20:13.514Z,9.70
2018-06-13T02:22:42.640Z,9.80
2018-06-13T02:25:11.666Z,9.70
2018-06-13T02:27:40.695Z,9.70
2018-06-13T02:30:09.883Z,9.70
2018-06-13T02:32:42.060Z,9.70
2018-06-13T02:35:11.103Z,9.80
2018-06-13T02:37:40.142Z,9.80
2018-06-13T02:40:09.167Z,9.50
2018-06-13T02:42:38.321Z,9.60
2018-06-13T02:45:07.397Z,9.50
2018-06-13T03:11:22.263Z,9.40
2018-06-13T03:13:51.312Z,9.00
2018-06-13T03:16:20.576Z,9.30
2018-06-13T03:18:49.611Z,9.20
2018-06-13T03:21:18.664Z,9.20
2018-06-13T03:23:53.955Z,9.20
2018-06-13T03:26:22.999Z,9.20
2018-06-13T03:28:52.355Z,9.10
2018-06-13T03:33:50.030Z,9.30
2018-06-13T03:36:19.054Z,9.30
2018-06-13T03:38:48.089Z,9.40
2018-06-13T03:41:17.451Z,9.40
2018-06-13T03:43:47.343Z,9.40
2018-06-13T03:46:16.504Z,9.50
2018-06-13T03:48:45.553Z,9.40
2018-06-13T03:53:43.216Z,9.50
2018-06-13T03:56:12.273Z,9.60
2018-06-13T03:58:41.303Z,9.50
2018-06-13T04:18:57.940Z,10.00
2018-06-13T04:21:26.983Z,10.00
2018-06-13T04:23:56.029Z,10.10
2018-06-13T04:26:25.075Z,10.10
2018-06-13T04:28:54.124Z,10.20
2018-06-13T04:31:23.248Z,10.30
2018-06-13T04:33:52.260Z,10.30
2018-06-13T04:36:21.308Z,10.30
2018-06-13T04:38:50.351Z,10.30
2018-06-13T04:41:19.400Z,10.40
2018-06-13T04:43:48.440Z,10.50
2018-06-13T04:46:17.481Z,10.70
2018-06-13T04:48:46.531Z,10.70
2018-06-13T04:51:15.590Z,10.90
2018-06-13T04:53:44.635Z,10.90
2018-06-13T04:56:13.679Z,11.10
2018-06-13T04:58:42.709Z,11.20
2018-06-13T05:01:11.770Z,11.30
2018-06-13T05:03:40.820Z,11.40
2018-06-13T05:06:09.848Z,11.50
2018-06-13T05:08:38.932Z,11.50
2018-06-13T05:13:36.619Z,11.70
2018-06-13T05:16:05.708Z,11.80
2018-06-13T05:18:34.744Z,11.90
2018-06-13T05:21:03.775Z,12.10
2018-06-13T05:23:33.080Z,12.10
2018-06-13T05:26:02.159Z,12.20
2018-06-13T05:28:31.171Z,12.30
2018-06-13T05:31:00.198Z,12.40
2018-06-13T05:33:29.246Z,12.60
2018-06-13T05:35:58.320Z,12.60
2018-06-13T05:38:27.376Z,12.60
2018-06-13T05:40:56.431Z,12.80
2018-06-13T05:43:25.463Z,12.90
2018-06-13T05:45:54.481Z,13.10
2018-06-13T05:48:23.859Z,13.30
2018-06-13T05:50:52.938Z,13.50
2018-06-13T05:53:22.403Z,13.30
2018-06-13T05:55:51.636Z,13.30
2018-06-13T05:58:21.075Z,13.50
2018-06-13T06:00:50.174Z,13.50
2018-06-13T06:03:19.489Z,13.50
2018-06-13T06:05:51.447Z,13.90
2018-06-13T06:08:20.507Z,14.10
2018-06-13T06:10:49.560Z,14.10
2018-06-13T06:13:18.844Z,14.40
2018-06-13T06:18:01.704Z,15.00
2018-06-13T06:22:59.723Z,15.40
2018-06-13T06:35:23.359Z,15.30
2018-06-13T06:40:21.063Z,15.90
2018-06-13T06:42:50.141Z,16.00
2018-06-13T06:50:16.478Z,16.30
2018-06-13T07:03:43.716Z,17.20
2018-06-13T07:06:12.755Z,17.70
2018-06-13T07:11:10.846Z,18.00
2018-06-13T07:13:39.937Z,18.60
2018-06-13T07:31:00.976Z,18.90
2018-06-13T07:43:24.568Z,20.50
2018-06-13T07:45:53.618Z,20.30
2018-06-13T07:48:22.681Z,20.60
2018-06-13T07:53:20.857Z,20.20
2018-06-13T07:55:49.903Z,20.60
2018-06-13T08:03:16.540Z,20.40
2018-06-13T08:08:14.432Z,20.90
2018-06-13T08:10:43.492Z,22.00
2018-06-13T08:13:12.540Z,22.10
2018-06-13T08:18:10.199Z,23.00
2018-06-13T08:33:03.859Z,22.90
2018-06-13T08:38:03.187Z,23.40
2018-06-13T08:40:33.091Z,22.70
2018-06-13T08:43:04.340Z,23.10
2018-06-13T08:50:34.920Z,24.00
2018-06-13T08:55:35.772Z,24.90
2018-06-13T09:00:36.219Z,23.00
2018-06-13T09:08:04.316Z,23.20
2018-06-13T09:13:03.083Z,23.50
2018-06-13T09:20:30.239Z,22.80
2018-06-13T09:30:26.340Z,23.60
2018-06-13T09:40:21.359Z,24.20
2018-06-13T09:42:50.711Z,24.00
2018-06-13T09:47:48.929Z,24.10
2018-06-13T09:50:18.452Z,23.80
2018-06-13T09:52:47.746Z,23.70
2018-06-13T09:55:17.120Z,24.20
2018-06-13T10:00:21.148Z,23.30
2018-06-13T10:02:50.196Z,23.90
2018-06-13T10:07:48.370Z,23.90
2018-06-13T10:10:17.471Z,24.40
2018-06-13T10:12:46.729Z,23.90
2018-06-13T10:15:15.817Z,23.80
2018-06-13T10:17:44.912Z,24.10
2018-06-13T10:20:14.998Z,24.60
2018-06-13T10:22:44.592Z,24.50
2018-06-13T10:25:14.010Z,23.50
2018-06-13T10:27:43.501Z,23.50
2018-06-13T10:30:12.800Z,24.20
2018-06-13T10:32:42.099Z,23.60
2018-06-13T10:35:12.112Z,23.30
2018-06-13T10:37:41.605Z,23.90
2018-06-13T10:40:11.232Z,23.90
2018-06-13T10:45:09.519Z,23.80
2018-06-13T10:47:39.095Z,23.80
2018-06-13T10:50:08.739Z,23.10
2018-06-13T10:55:06.635Z,23.30
2018-06-13T10:57:36.320Z,22.90
2018-06-13T11:00:05.624Z,23.10
2018-06-13T11:02:35.253Z,23.80
2018-06-13T11:05:05.045Z,23.80
2018-06-13T11:07:34.067Z,22.90
2018-06-13T11:10:03.447Z,22.40
2018-06-13T11:12:32.775Z,23.30
2018-06-13T11:15:01.815Z,23.30
2018-06-13T11:17:30.963Z,24.10
2018-06-13T11:20:00.029Z,24.20
2018-06-13T11:22:29.312Z,24.40
2018-06-13T11:24:58.396Z,24.20
2018-06-13T11:27:27.455Z,24.20
2018-06-13T11:29:56.565Z,23.90
2018-06-13T11:32:25.608Z,23.90
2018-06-13T11:34:57.830Z,23.50
2018-06-13T11:42:25.518Z,23.40
2018-06-13T11:44:54.584Z,23.30
2018-06-13T11:47:23.612Z,23.20
2018-06-13T11:49:52.706Z,23.40
2018-06-13T11:52:21.765Z,23.50
2018-06-13T11:54:50.834Z,23.80
2018-06-13T11:57:20.079Z,23.30
2018-06-13T11:59:49.124Z,23.30
2018-06-13T12:02:18.186Z,23.40
2018-06-13T12:07:15.972Z,22.00
2018-06-13T12:09:45.029Z,22.10
2018-06-13T12:12:14.072Z,23.10
2018-06-13T12:14:43.473Z,23.10
2018-06-13T12:17:12.921Z,24.30
2018-06-13T12:19:41.979Z,23.70
2018-06-13T12:22:11.415Z,23.50
2018-06-13T12:27:15.675Z,23.10
2018-06-13T12:29:44.715Z,22.60
2018-06-13T12:32:13.779Z,22.90
2018-06-13T12:34:43.171Z,23.10
2018-06-13T12:37:12.209Z,23.10
2018-06-13T12:39:41.560Z,23.00
2018-06-13T12:42:10.621Z,23.10
2018-06-13T12:44:40.000Z,22.80
2018-06-13T12:47:09.468Z,23.80
2018-06-13T12:49:38.547Z,23.20
2018-06-13T12:52:07.924Z,22.40
2018-06-13T12:57:06.080Z,22.80
2018-06-13T12:59:35.479Z,23.20
2018-06-13T13:02:04.588Z,23.40
2018-06-13T13:07:02.486Z,22.20
2018-06-13T13:09:32.133Z,22.90
2018-06-13T13:14:30.069Z,22.80
2018-06-13T13:16:59.122Z,22.60
2018-06-13T13:26:55.154Z,22.30
2018-06-13T13:29:24.194Z,22.10
2018-06-13T13:34:21.875Z,22.10
2018-06-13T13:36:50.899Z,23.00
2018-06-13T13:39:19.941Z,23.10
2018-06-13T13:41:48.978Z,22.90
2018-06-13T13:44:18.060Z,22.80
2018-06-13T13:46:47.085Z,23.00
2018-06-13T13:56:42.077Z,22.70
2018-06-13T14:09:07.590Z,22.40
2018-06-13T14:16:33.974Z,23.30
2018-06-13T14:21:31.733Z,22.90
2018-06-13T14:31:26.863Z,23.20
2018-06-13T14:36:24.531Z,22.80
2018-06-13T14:41:22.834Z,22.70
2018-06-13T14:43:52.152Z,22.80
2018-06-13T14:48:49.832Z,23.10
2018-06-13T14:53:47.891Z,22.20
2018-06-13T14:56:22.291Z,21.30
2018-06-13T15:03:49.007Z,21.50
2018-06-13T15:11:15.503Z,21.50
2018-06-13T15:13:44.571Z,21.30
2018-06-13T15:26:08.147Z,20.80
2018-06-13T15:28:37.219Z,20.80
2018-06-13T15:33:35.271Z,21.10
2018-06-13T15:38:33.247Z,20.90
2018-06-13T15:43:30.978Z,20.20
2018-06-13T15:48:28.615Z,19.90
2018-06-13T15:53:32.954Z,20.10
2018-06-13T15:56:02.030Z,20.30
2018-06-13T16:00:59.724Z,19.80
2018-06-13T16:20:51.774Z,19.50
2018-06-13T16:30:46.763Z,19.00
2018-06-13T16:55:46.875Z,17.30
2018-06-13T16:58:15.924Z,17.40
2018-06-13T17:00:44.976Z,17.20
2018-06-13T17:05:42.698Z,17.10
2018-06-13T17:08:11.768Z,17.20
2018-06-13T17:28:01.393Z,17.00
2018-06-13T17:40:25.269Z,17.00
2018-06-13T17:47:52.299Z,16.70
2018-06-13T17:52:50.052Z,16.60
2018-06-13T18:02:45.067Z,16.10
2018-06-13T18:22:36.157Z,15.50
2018-06-13T18:30:02.983Z,15.20
2018-06-13T18:37:29.323Z,15.30
2018-06-13T19:04:44.964Z,14.60
2018-06-13T19:41:55.927Z,14.00
2018-06-13T20:04:25.066Z,13.70
2018-06-13T20:06:54.109Z,13.70
2018-06-13T20:14:25.867Z,13.60
2018-06-13T20:17:00.012Z,13.60
2018-06-13T20:27:07.901Z,13.50
2018-06-13T20:29:42.333Z,13.50
2018-06-13T20:39:37.589Z,13.60
2018-06-13T20:44:35.339Z,13.60
2018-06-13T20:47:04.395Z,13.50
2018-06-13T20:56:59.355Z,13.50
2018-06-13T20:59:28.407Z,13.40
2018-06-13T21:01:57.464Z,13.50
2018-06-13T21:06:55.464Z,13.50
2018-06-13T21:19:19.257Z,13.40
2018-06-13T21:39:10.659Z,13.50
2018-06-13T21:41:40.149Z,13.40
2018-06-13T21:46:38.276Z,13.40
2018-06-13T21:56:33.703Z,13.50
2018-06-13T22:11:26.167Z,13.50
2018-06-13T22:16:23.868Z,13.50
2018-06-13T22:18:52.911Z,13.50
2018-06-13T22:23:50.644Z,13.50
2018-06-13T22:26:19.689Z,13.50
2018-06-13T22:28:48.984Z,13.40
2018-06-13T22:31:18.040Z,13.40
2018-06-13T22:33:47.117Z,13.40
2018-06-13T22:36:16.148Z,13.40
2018-06-13T22:38:45.167Z,13.30
2018-06-13T22:41:14.244Z,13.20
2018-06-13T22:48:40.575Z,13.20
2018-06-13T22:53:38.851Z,13.10
2018-06-13T22:56:07.902Z,13.00
2018-06-13T22:58:36.924Z,13.10
2018-06-13T23:01:11.172Z,13.00
2018-06-13T23:03:40.659Z,13.10
2018-06-13T23:06:10.699Z,13.00
2018-06-13T23:08:40.188Z,13.10
2018-06-13T23:16:06.998Z,13.10
2018-06-13T23:18:36.040Z,13.10
2018-06-13T23:28:30.995Z,13.20
2018-06-13T23:31:00.038Z,13.30
2018-06-13T23:33:29.080Z,13.30
2018-06-13T23:35:58.164Z,13.30
2018-06-13T23:40:55.862Z,13.40
2018-06-13T23:45:53.540Z,13.40
2018-06-13T23:48:22.589Z,13.50
2018-06-13T23:58:17.527Z,13.50
